Time;durP1;ratioP1;P1;durP2;ratioP2;P2;SDS_P1;SDS_P2;PMS_P1;PMS_P2;Temp;Humidity;BMP_temperature;BMP_pressure;BME280_temperature;BME280_humidity;BME280_pressure;Samples;Min_cycle;Max_cycle;Signal;HPM_P1;HPM_P2
2023/01/27 00:00:49;;;;;;;2.77;2.20;;;0.90;98.00;;;;;;5054060;28;20457;-67
2023/01/27 00:03:17;;;;;;;4.33;2.73;;;1.00;98.00;;;;;;5053417;28;20548;-66
2023/01/27 00:05:44;;;;;;;3.53;2.03;;;0.90;98.00;;;;;;5053994;28;20456;-66
2023/01/27 00:08:12;;;;;;;5.63;2.80;;;0.80;98.00;;;;;;5053908;28;20499;-66
2023/01/27 00:10:39;;;;;;;5.33;2.70;;;0.80;98.00;;;;;;5053960;28;20472;-67
2023/01/27 00:15:52;;;;;;;6.53;3.90;;;0.90;98.00;;;;;;5054041;28;20576;-66
2023/01/27 00:18:20;;;;;;;3.77;2.10;;;0.90;98.00;;;;;;5053734;28;20467;-66
2023/01/27 00:26:18;;;;;;;5.47;2.97;;;0.80;98.00;;;;;;5054015;28;20445;-66
2023/01/27 00:28:47;;;;;;;3.50;2.20;;;0.90;98.00;;;;;;5053599;28;20489;-66
2023/01/27 00:34:07;;;;;;;4.60;3.30;;;1.10;98.00;;;;;;5053704;28;20455;-66
2023/01/27 00:36:35;;;;;;;3.10;2.47;;;1.10;98.00;;;;;;5053503;28;20454;-66
2023/01/27 00:39:02;;;;;;;6.60;2.60;;;1.20;98.00;;;;;;5053469;28;20499;-66
2023/01/27 00:41:29;;;;;;;4.53;3.20;;;1.20;98.00;;;;;;5053431;28;20461;-66
2023/01/27 00:43:56;;;;;;;3.87;2.77;;;1.20;98.00;;;;;;5052096;28;21007;-66
2023/01/27 00:46:25;;;;;;;6.73;3.57;;;1.20;98.00;;;;;;5053087;28;20937;-66
2023/01/27 00:48:52;;;;;;;5.10;3.40;;;1.00;98.00;;;;;;5053154;28;20489;-66
2023/01/27 00:51:20;;;;;;;4.70;2.70;;;1.00;98.00;;;;;;5053326;28;20519;-66
2023/01/27 00:53:48;;;;;;;4.73;3.10;;;0.90;98.00;;;;;;5053280;28;20518;-67
2023/01/27 00:56:15;;;;;;;2.90;2.20;;;0.80;98.00;;;;;;5053080;28;20457;-66
2023/01/27 00:58:42;;;;;;;7.07;2.70;;;0.70;98.00;;;;;;5053098;28;20956;-67
2023/01/27 01:01:12;;;;;;;4.07;2.90;;;0.70;98.00;;;;;;5053005;28;20503;-67
2023/01/27 01:03:41;;;;;;;7.63;3.23;;;0.60;98.00;;;;;;5053077;28;20802;-66
2023/01/27 01:06:10;;;;;;;3.40;2.23;;;0.70;98.00;;;;;;5052808;28;20465;-66
2023/01/27 01:08:38;;;;;;;4.60;2.83;;;0.70;98.00;;;;;;5052305;28;20998;-66
2023/01/27 01:11:06;;;;;;;3.87;3.00;;;0.80;98.00;;;;;;5052962;28;20969;-66
2023/01/27 01:13:33;;;;;;;3.20;2.43;;;0.90;98.00;;;;;;5052943;28;20465;-67
2023/01/27 01:16:06;;;;;;;2.80;2.47;;;1.00;98.00;;;;;;5053095;28;20833;-66
2023/01/27 01:18:33;;;;;;;3.83;2.57;;;0.90;98.00;;;;;;5052793;28;20488;-67
2023/01/27 01:21:02;;;;;;;8.60;2.90;;;0.80;98.00;;;;;;5053149;28;20472;-66
2023/01/27 01:23:29;;;;;;;6.33;2.60;;;0.80;98.00;;;;;;5052616;28;20460;-66
2023/01/27 01:25:57;;;;;;;5.53;3.20;;;0.80;98.00;;;;;;5053390;28;20817;-66
2023/01/27 01:28:24;;;;;;;8.67;3.20;;;1.00;98.00;;;;;;5052416;28;20511;-66
2023/01/27 01:30:53;;;;;;;5.03;2.87;;;1.00;98.00;;;;;;5051618;28;20449;-66
2023/01/27 01:33:21;;;;;;;4.90;3.00;;;0.90;98.00;;;;;;5051232;28;21082;-66
2023/01/27 01:35:48;;;;;;;3.07;2.33;;;1.00;98.00;;;;;;5052661;28;20457;-66
2023/01/27 01:38:16;;;;;;;4.00;3.07;;;1.10;98.00;;;;;;5052635;28;20495;-66
2023/01/27 01:40:45;;;;;;;9.07;3.87;;;1.20;98.00;;;;;;5052336;28;20474;-66
2023/01/27 01:43:16;;;;;;;7.33;3.43;;;1.10;98.00;;;;;;5052245;28;20454;-66
2023/01/27 01:45:50;;;;;;;4.90;3.20;;;1.00;98.00;;;;;;5052092;28;20469;-66
2023/01/27 01:48:41;;;;;;;3.63;2.37;;;1.00;98.00;;;;;;5052059;28;20457;-66
2023/01/27 01:51:12;;;;;;;3.60;3.17;;;1.10;98.00;;;;;;5052137;28;20465;-66
2023/01/27 01:53:44;;;;;;;5.50;3.10;;;1.00;98.00;;;;;;5052272;28;20463;-66
2023/01/27 01:56:17;;;;;;;3.93;3.07;;;1.10;98.00;;;;;;5052094;28;20954;-66
2023/01/27 01:58:45;;;;;;;6.33;3.40;;;1.10;98.00;;;;;;5051920;28;20467;-66
2023/01/27 02:01:14;;;;;;;7.13;3.27;;;1.10;98.00;;;;;;5051997;28;20473;-66
2023/01/27 02:03:45;;;;;;;3.33;2.80;;;1.10;98.00;;;;;;5051888;28;20471;-66
2023/01/27 02:06:12;;;;;;;5.30;3.57;;;1.10;98.00;;;;;;5051820;28;20471;-66
2023/01/27 02:08:44;;;;;;;5.20;2.80;;;1.00;98.00;;;;;;5050547;28;20543;-66
2023/01/27 02:11:11;;;;;;;3.10;2.93;;;1.10;98.00;;;;;;5051788;28;20504;-66
2023/01/27 02:13:39;;;;;;;3.57;2.87;;;1.10;98.00;;;;;;5050580;28;20461;-66
2023/01/27 02:16:08;;;;;;;3.87;2.63;;;1.00;98.00;;;;;;5051601;28;21021;-66
2023/01/27 02:18:35;;;;;;;4.47;2.60;;;0.80;98.00;;;;;;5051233;28;20457;-66
2023/01/27 02:21:03;;;;;;;8.67;2.90;;;0.60;98.00;;;;;;5051559;28;20453;-66
2023/01/27 02:23:56;;;;;;;3.63;2.37;;;0.40;98.00;;;;;;5051526;28;20993;-66
2023/01/27 02:26:28;;;;;;;4.40;2.90;;;0.60;98.00;;;;;;5051592;28;20460;-66
2023/01/27 02:28:57;;;;;;;3.70;2.83;;;0.60;98.00;;;;;;5051551;28;20488;-66
2023/01/27 02:31:24;;;;;;;3.60;2.30;;;0.70;98.00;;;;;;5051426;28;20456;-66
2023/01/27 02:33:54;;;;;;;3.23;2.47;;;0.70;98.00;;;;;;5050147;28;20464;-66
2023/01/27 02:36:21;;;;;;;2.53;2.33;;;0.70;98.00;;;;;;5051123;28;20959;-66
2023/01/27 02:38:52;;;;;;;5.17;2.90;;;0.70;98.00;;;;;;5049999;28;20824;-66
2023/01/27 02:41:25;;;;;;;6.40;3.60;;;0.80;98.00;;;;;;5050002;28;20964;-66
2023/01/27 02:43:54;;;;;;;3.97;2.83;;;0.80;98.00;;;;;;5051182;28;20467;-66
2023/01/27 02:46:22;;;;;;;4.47;2.47;;;0.70;98.00;;;;;;5049730;28;20465;-66
2023/01/27 02:48:49;;;;;;;4.53;2.53;;;0.70;98.00;;;;;;5050978;28;20512;-66
2023/01/27 02:51:16;;;;;;;4.60;3.27;;;0.80;98.00;;;;;;5051050;28;20453;-66
2023/01/27 02:53:43;;;;;;;2.90;2.17;;;0.80;98.00;;;;;;5051123;28;20457;-66
2023/01/27 02:56:10;;;;;;;2.53;1.97;;;0.90;98.00;;;;;;5051067;28;20465;-66
2023/01/27 02:58:38;;;;;;;5.20;3.03;;;0.80;98.00;;;;;;5051005;28;20468;-66
2023/01/27 03:01:10;;;;;;;4.83;3.23;;;0.70;98.00;;;;;;5050971;28;20454;-66
2023/01/27 03:03:42;;;;;;;2.90;2.40;;;0.80;98.00;;;;;;5051005;28;20806;-66
2023/01/27 03:06:09;;;;;;;4.23;2.77;;;0.70;98.00;;;;;;5051110;28;21030;-66
2023/01/27 03:08:36;;;;;;;3.30;2.47;;;0.70;98.00;;;;;;5050903;28;20460;-66
2023/01/27 03:11:04;;;;;;;3.77;2.33;;;0.60;98.00;;;;;;5050873;28;20559;-66
2023/01/27 03:13:31;;;;;;;4.13;2.70;;;0.70;98.00;;;;;;5049707;28;20450;-66
2023/01/27 03:18:48;;;;;;;5.40;2.63;;;0.70;98.00;;;;;;5051010;28;20850;-66
2023/01/27 03:21:16;;;;;;;5.20;2.60;;;0.80;98.00;;;;;;5051001;28;20813;-66
2023/01/27 03:23:44;;;;;;;4.90;2.23;;;0.70;98.00;;;;;;5050945;28;20473;-66
2023/01/27 03:26:12;;;;;;;3.53;2.70;;;0.70;98.00;;;;;;5049775;28;20462;-66
2023/01/27 03:28:39;;;;;;;8.10;4.13;;;0.70;98.00;;;;;;5050834;28;20793;-66
2023/01/27 03:31:08;;;;;;;6.70;2.40;;;0.60;98.00;;;;;;5053269;28;20453;-66
2023/01/27 03:33:41;;;;;;;7.40;3.10;;;0.70;98.00;;;;;;5053428;28;20484;-66
2023/01/27 03:47:08;;;;;;;7.80;3.13;;;0.90;98.00;;;;;;5054216;28;20821;-66
2023/01/27 03:49:35;;;;;;;7.30;2.93;;;0.70;98.00;;;;;;5054248;28;20895;-66
2023/01/27 03:52:07;;;;;;;3.53;2.27;;;0.70;98.00;;;;;;5053034;28;20840;-66
2023/01/27 03:54:34;;;;;;;2.90;1.90;;;0.60;98.00;;;;;;5054472;28;20456;-66
2023/01/27 03:57:04;;;;;;;3.67;2.37;;;0.40;98.00;;;;;;5054121;28;20823;-66
2023/01/27 03:59:32;;;;;;;4.50;2.50;;;0.30;98.00;;;;;;5054170;28;20464;-66
2023/01/27 04:07:30;;;;;;;3.37;3.17;;;0.30;98.00;;;;;;5053867;28;20510;-66
2023/01/27 04:09:58;;;;;;;4.90;2.83;;;0.30;98.00;;;;;;5053779;28;20488;-66
2023/01/27 04:12:25;;;;;;;5.37;2.77;;;0.30;98.00;;;;;;5053833;28;20460;-66
2023/01/27 04:14:53;;;;;;;4.90;2.87;;;0.30;98.00;;;;;;5053957;28;20476;-66
2023/01/27 04:17:20;;;;;;;3.23;2.03;;;0.30;98.00;;;;;;5053871;28;20835;-66
2023/01/27 04:22:34;;;;;;;3.87;2.77;;;0.50;98.00;;;;;;5053670;28;20981;-66
2023/01/27 04:25:01;;;;;;;7.03;2.53;;;0.50;98.00;;;;;;5053931;28;20457;-66
2023/01/27 04:27:28;;;;;;;4.70;3.13;;;0.50;98.00;;;;;;5053740;28;20457;-66
2023/01/27 04:29:55;;;;;;;6.23;2.77;;;0.60;98.00;;;;;;5052221;28;20500;-67
2023/01/27 04:32:22;;;;;;;6.83;4.30;;;0.60;98.00;;;;;;5053676;28;20742;-66
2023/01/27 04:34:49;;;;;;;4.43;3.03;;;0.70;98.00;;;;;;5053117;28;20473;-66
2023/01/27 04:37:17;;;;;;;4.03;2.97;;;0.70;98.00;;;;;;5053544;28;20461;-66
2023/01/27 04:39:46;;;;;;;8.93;3.10;;;0.80;98.00;;;;;;5053467;28;20825;-67
2023/01/27 04:42:14;;;;;;;12.23;3.13;;;0.80;98.00;;;;;;5052796;28;20461;-66
2023/01/27 04:44:41;;;;;;;7.53;2.83;;;0.70;98.00;;;;;;5053257;28;20456;-66
2023/01/27 04:47:08;;;;;;;2.33;1.97;;;0.70;98.00;;;;;;5051839;28;20480;-66
2023/01/27 04:49:35;;;;;;;3.00;2.40;;;0.70;98.00;;;;;;5052989;28;20562;-66
2023/01/27 04:52:04;;;;;;;3.07;2.43;;;0.80;98.00;;;;;;5051847;28;20802;-66
2023/01/27 04:54:33;;;;;;;6.10;2.53;;;0.80;98.00;;;;;;5053146;28;20465;-66
2023/01/27 04:57:02;;;;;;;5.30;2.93;;;0.60;98.00;;;;;;5052965;28;20970;-66
2023/01/27 04:59:30;;;;;;;8.23;3.17;;;0.70;98.00;;;;;;5053051;28;20962;-66
2023/01/27 05:01:58;;;;;;;1.90;1.80;;;0.70;98.00;;;;;;5052889;28;20468;-66
2023/01/27 05:04:26;;;;;;;2.80;1.97;;;0.90;98.00;;;;;;5052906;28;20476;-67
2023/01/27 05:06:53;;;;;;;3.20;2.03;;;1.00;98.00;;;;;;5052791;28;20537;-66
2023/01/27 05:09:20;;;;;;;4.00;2.57;;;1.00;98.00;;;;;;5052786;28;20471;-66
2023/01/27 05:11:47;;;;;;;2.83;2.30;;;1.10;98.00;;;;;;5051527;28;20453;-66
2023/01/27 05:14:16;;;;;;;2.60;2.33;;;1.00;98.00;;;;;;5052711;28;20460;-66
2023/01/27 05:16:43;;;;;;;2.03;1.83;;;1.00;98.00;;;;;;5052651;28;20460;-67
2023/01/27 05:19:10;;;;;;;2.77;2.30;;;1.10;98.00;;;;;;5051129;28;20859;-66
2023/01/27 05:21:38;;;;;;;3.77;1.93;;;1.10;98.00;;;;;;5052646;28;20456;-66
2023/01/27 05:24:05;;;;;;;4.27;2.20;;;1.10;98.00;;;;;;5052897;28;20461;-66
2023/01/27 05:26:32;;;;;;;2.13;1.77;;;1.10;98.00;;;;;;5052741;28;20459;-66
2023/01/27 05:28:59;;;;;;;6.80;2.07;;;1.10;98.00;;;;;;5052308;28;20456;-66
2023/01/27 05:31:30;;;;;;;2.27;1.67;;;1.20;98.00;;;;;;5052355;28;20771;-66
2023/01/27 05:33:59;;;;;;;3.60;2.40;;;1.30;98.00;;;;;;5052363;28;20471;-66
2023/01/27 05:36:26;;;;;;;4.83;2.70;;;1.30;98.00;;;;;;5052439;28;20461;-66
2023/01/27 05:38:55;;;;;;;7.27;2.50;;;1.30;98.00;;;;;;5052613;28;20499;-66
2023/01/27 05:41:23;;;;;;;2.43;2.17;;;1.30;98.00;;;;;;5052158;28;20556;-66
2023/01/27 05:43:53;;;;;;;3.43;2.43;;;1.30;98.00;;;;;;5052077;28;20939;-66
2023/01/27 05:46:22;;;;;;;2.00;1.90;;;1.30;98.00;;;;;;5051573;28;20983;-66
2023/01/27 05:48:52;;;;;;;3.13;2.00;;;1.30;98.00;;;;;;5051940;28;20464;-66
2023/01/27 05:51:21;;;;;;;3.43;2.03;;;1.20;98.00;;;;;;5052047;28;20572;-66
2023/01/27 05:53:49;;;;;;;7.17;4.13;;;1.20;98.00;;;;;;5050800;28;20458;-66
2023/01/27 05:56:18;;;;;;;5.73;2.37;;;1.10;98.00;;;;;;5051880;28;20866;-66
2023/01/27 05:58:45;;;;;;;3.60;2.20;;;1.20;98.00;;;;;;5052079;28;20461;-66
2023/01/27 06:01:15;;;;;;;4.10;2.40;;;1.20;98.00;;;;;;5050975;28;21086;-66
2023/01/27 06:03:44;;;;;;;2.80;2.10;;;1.20;98.00;;;;;;5050512;28;20473;-67
2023/01/27 06:06:13;;;;;;;5.17;2.10;;;1.20;98.00;;;;;;5052605;28;20524;-66
2023/01/27 06:08:42;;;;;;;2.17;2.00;;;1.30;98.00;;;;;;5052104;28;20454;-66
2023/01/27 06:11:09;;;;;;;8.87;2.57;;;1.30;98.00;;;;;;5051640;28;20488;-66
2023/01/27 06:13:37;;;;;;;2.80;2.13;;;1.30;98.00;;;;;;5051946;28;20816;-66
2023/01/27 06:16:06;;;;;;;5.77;2.67;;;1.30;98.00;;;;;;5051673;28;20541;-66
2023/01/27 06:18:35;;;;;;;2.97;2.77;;;1.40;98.00;;;;;;5051811;28;20456;-66
2023/01/27 06:21:03;;;;;;;4.93;1.93;;;1.30;98.00;;;;;;5051708;28;20461;-67
2023/01/27 06:23:33;;;;;;;7.47;3.07;;;1.30;98.00;;;;;;5051732;28;20479;-66
2023/01/27 06:26:02;;;;;;;4.77;2.60;;;1.30;98.00;;;;;;5050418;28;20460;-66
2023/01/27 06:28:29;;;;;;;8.10;2.87;;;1.30;98.00;;;;;;5051595;28;20466;-66
2023/01/27 06:30:57;;;;;;;2.70;1.93;;;1.30;98.00;;;;;;5051339;28;21140;-66
2023/01/27 06:33:24;;;;;;;5.50;3.03;;;1.30;98.00;;;;;;5051415;28;20844;-66
2023/01/27 06:35:51;;;;;;;2.40;1.90;;;1.30;98.00;;;;;;5051272;28;20461;-66
2023/01/27 06:38:18;;;;;;;2.27;1.97;;;1.30;98.00;;;;;;5051228;28;20962;-67
2023/01/27 06:40:48;;;;;;;2.80;2.20;;;1.20;98.00;;;;;;5050084;28;20457;-66
2023/01/27 06:43:15;;;;;;;3.47;2.00;;;1.30;98.00;;;;;;5050098;28;20469;-66
2023/01/27 06:45:42;;;;;;;2.47;1.80;;;1.30;98.00;;;;;;5051030;28;20973;-66
2023/01/27 06:48:09;;;;;;;2.70;1.90;;;1.20;98.00;;;;;;5049925;28;20939;-66
2023/01/27 06:50:37;;;;;;;4.03;2.83;;;1.20;98.00;;;;;;5051078;28;20485;-66
2023/01/27 06:53:06;;;;;;;2.93;2.30;;;1.20;98.00;;;;;;5054085;28;20464;-66
2023/01/27 06:55:33;;;;;;;4.00;2.07;;;1.10;98.00;;;;;;5071262;28;20479;-66
2023/01/27 06:58:03;;;;;;;8.30;2.33;;;1.20;98.00;;;;;;5069879;28;20535;-66
2023/01/27 07:00:30;;;;;;;4.30;2.60;;;1.20;98.00;;;;;;5071012;28;20455;-62
2023/01/27 07:02:57;;;;;;;5.37;2.33;;;1.20;98.00;;;;;;5071057;28;20923;-62
2023/01/27 07:05:25;;;;;;;4.80;2.37;;;1.20;98.00;;;;;;5072186;28;20464;-62
2023/01/27 07:07:52;;;;;;;4.07;2.43;;;1.20;98.00;;;;;;5073938;28;20489;-62
2023/01/27 07:10:19;;;;;;;2.33;2.10;;;1.30;98.00;;;;;;5075451;28;20549;-62
2023/01/27 07:12:46;;;;;;;6.30;3.40;;;1.30;98.00;;;;;;5075076;28;20808;-62
2023/01/27 07:15:15;;;;;;;3.00;2.27;;;1.30;98.00;;;;;;5075026;28;20946;-62
2023/01/27 07:17:42;;;;;;;5.77;2.40;;;1.30;98.00;;;;;;5073866;28;20460;-62
2023/01/27 07:20:13;;;;;;;3.93;2.50;;;1.30;98.00;;;;;;5060511;28;20820;-62
2023/01/27 07:22:40;;;;;;;2.37;2.00;;;1.40;98.00;;;;;;5055155;28;20517;-62
2023/01/27 07:25:08;;;;;;;5.27;3.50;;;1.50;98.00;;;;;;5053756;28;20465;-62
2023/01/27 07:27:35;;;;;;;3.10;2.07;;;1.50;98.00;;;;;;5054900;28;20466;-62
2023/01/27 07:30:02;;;;;;;5.07;2.37;;;1.60;98.00;;;;;;5054462;28;20464;-62
2023/01/27 07:32:31;;;;;;;3.07;1.80;;;1.60;98.00;;;;;;5054815;28;20465;-62
2023/01/27 07:34:58;;;;;;;3.90;2.50;;;1.60;98.00;;;;;;5053253;28;20876;-62
2023/01/27 07:37:25;;;;;;;3.80;2.70;;;1.50;98.00;;;;;;5054556;28;20463;-62
2023/01/27 07:39:52;;;;;;;3.93;2.93;;;1.40;98.00;;;;;;5054659;28;20453;-63
2023/01/27 07:42:19;;;;;;;6.20;3.80;;;1.50;98.00;;;;;;5054356;28;20502;-62
2023/01/27 07:44:47;;;;;;;1.87;1.87;;;1.40;98.00;;;;;;5054405;28;20947;-62
2023/01/27 07:47:15;;;;;;;9.13;2.77;;;1.30;98.00;;;;;;5053999;28;20491;-62
2023/01/27 07:49:43;;;;;;;2.70;2.40;;;1.40;98.00;;;;;;5054142;28;20518;-62
2023/01/27 07:52:10;;;;;;;2.33;2.17;;;1.40;98.00;;;;;;5054252;28;20816;-62
2023/01/27 07:54:38;;;;;;;5.37;2.87;;;1.40;98.00;;;;;;5054373;28;20457;-62
2023/01/27 07:57:05;;;;;;;4.90;2.70;;;1.30;98.00;;;;;;5052914;28;20492;-62
2023/01/27 08:02:13;;;;;;;4.07;2.63;;;1.40;98.00;;;;;;5053754;28;20457;-62
2023/01/27 08:04:40;;;;;;;7.00;2.40;;;1.40;98.00;;;;;;5054192;28;20468;-62
2023/01/27 08:07:10;;;;;;;4.50;2.90;;;1.50;98.00;;;;;;5054041;28;20465;-62
2023/01/27 08:09:38;;;;;;;6.67;3.30;;;1.40;98.00;;;;;;5053630;28;20476;-62
2023/01/27 08:12:05;;;;;;;6.00;2.60;;;1.40;98.00;;;;;;5053505;28;20488;-62
2023/01/27 08:14:32;;;;;;;13.33;3.57;;;1.40;98.00;;;;;;5054077;28;20874;-62
2023/01/27 08:16:59;;;;;;;4.67;2.50;;;1.40;98.00;;;;;;5052726;28;20467;-62
2023/01/27 08:19:26;;;;;;;2.90;2.10;;;1.40;98.00;;;;;;5053816;28;20457;-62
2023/01/27 08:21:55;;;;;;;5.70;2.70;;;1.30;98.00;;;;;;5053827;28;20464;-62
2023/01/27 08:24:23;;;;;;;6.80;3.17;;;1.20;98.00;;;;;;5053580;28;20469;-63
2023/01/27 08:26:53;;;;;;;3.80;2.43;;;1.10;98.00;;;;;;5052939;28;20450;-61
2023/01/27 08:29:20;;;;;;;2.77;1.70;;;1.10;98.00;;;;;;5053943;28;20467;-61
2023/01/27 08:31:49;;;;;;;2.20;1.43;;;1.80;98.00;;;;;;5053516;28;20478;-61
2023/01/27 08:34:16;;;;;;;2.90;2.10;;;2.30;98.00;;;;;;5052432;28;20458;-61
2023/01/27 08:36:43;;;;;;;3.57;2.90;;;2.90;98.00;;;;;;5053321;28;20471;-60
2023/01/27 08:39:11;;;;;;;4.23;2.90;;;3.60;98.00;;;;;;5052675;28;20477;-61
2023/01/27 08:41:39;;;;;;;4.03;2.30;;;4.00;98.00;;;;;;5053251;28;20465;-60
2023/01/27 08:44:07;;;;;;;3.53;2.40;;;4.40;98.00;;;;;;5053149;28;20554;-61
2023/01/27 08:46:34;;;;;;;4.80;3.10;;;4.70;98.00;;;;;;5053141;28;20887;-60
2023/01/27 08:49:01;;;;;;;6.50;3.20;;;4.80;98.00;;;;;;5052673;28;20460;-62
2023/01/27 08:51:28;;;;;;;8.80;3.70;;;4.80;98.00;;;;;;5053174;28;20489;-62
2023/01/27 08:53:55;;;;;;;6.20;3.07;;;4.50;98.00;;;;;;5052950;28;20464;-62
2023/01/27 08:56:23;;;;;;;3.40;2.90;;;4.20;98.00;;;;;;5052992;28;20459;-62
2023/01/27 08:58:51;;;;;;;5.13;4.17;;;3.80;98.00;;;;;;5053033;28;20883;-62
2023/01/27 09:01:20;;;;;;;6.47;3.17;;;3.30;98.00;;;;;;5052861;28;21031;-62
2023/01/27 09:03:48;;;;;;;5.73;2.90;;;3.10;98.00;;;;;;5052603;28;20450;-62
2023/01/27 09:06:16;;;;;;;7.33;3.20;;;2.80;98.00;;;;;;5052620;28;20450;-62
2023/01/27 09:08:44;;;;;;;11.03;4.70;;;2.20;98.00;;;;;;5052466;28;20544;-62
2023/01/27 09:11:22;;;;;;;4.03;2.43;;;1.90;98.00;;;;;;5052418;28;20517;-62
2023/01/27 09:13:49;;;;;;;3.37;2.47;;;1.70;98.00;;;;;;5052429;28;20453;-62
2023/01/27 09:16:17;;;;;;;3.33;2.50;;;1.60;98.00;;;;;;5052568;28;20458;-62
2023/01/27 09:18:44;;;;;;;5.10;2.90;;;1.70;98.00;;;;;;5052429;28;20967;-62
2023/01/27 09:21:11;;;;;;;3.67;2.70;;;1.70;98.00;;;;;;5052476;28;20458;-62
2023/01/27 09:23:38;;;;;;;3.83;2.90;;;1.70;98.00;;;;;;5052389;28;20860;-62
2023/01/27 09:26:05;;;;;;;4.27;2.30;;;1.60;98.00;;;;;;5051373;28;20946;-62
2023/01/27 09:28:33;;;;;;;3.90;2.37;;;1.60;98.00;;;;;;5052014;28;20503;-62
2023/01/27 09:31:00;;;;;;;8.40;3.10;;;1.70;98.00;;;;;;5051048;28;20493;-62
2023/01/27 09:33:31;;;;;;;4.17;2.70;;;1.80;98.00;;;;;;5052188;28;20835;-62
2023/01/27 09:36:02;;;;;;;4.10;2.23;;;1.90;98.00;;;;;;5052220;28;20464;-62
2023/01/27 09:38:34;;;;;;;8.23;2.43;;;2.10;98.00;;;;;;5052147;28;20489;-62
2023/01/27 09:41:18;;;;;;;6.57;2.60;;;2.00;98.00;;;;;;5052063;28;20878;-62
2023/01/27 09:44:05;;;;;;;4.50;3.10;;;1.90;98.00;;;;;;5051519;28;20453;-62
2023/01/27 09:46:50;;;;;;;4.07;2.17;;;2.00;98.00;;;;;;5053431;28;20481;-62
2023/01/27 09:49:40;;;;;;;5.07;2.57;;;2.10;98.00;;;;;;5052412;28;20948;-62
2023/01/27 09:52:28;;;;;;;3.53;2.33;;;2.10;98.00;;;;;;5051801;28;20539;-62
2023/01/27 09:55:03;;;;;;;3.43;2.47;;;2.10;98.00;;;;;;5032648;28;20531;-62
2023/01/27 09:57:41;;;;;;;4.70;3.23;;;2.10;98.00;;;;;;5032351;28;20501;-62
2023/01/27 10:00:26;;;;;;;4.37;2.80;;;1.90;98.00;;;;;;5031993;28;20969;-63
2023/01/27 10:03:17;;;;;;;4.10;2.93;;;1.70;98.00;;;;;;5031696;28;20831;-62
2023/01/27 10:06:08;;;;;;;3.97;2.43;;;1.60;98.00;;;;;;5060687;28;20886;-62
2023/01/27 10:08:59;;;;;;;8.20;2.47;;;1.70;98.00;;;;;;5062015;28;20449;-62
2023/01/27 10:11:35;;;;;;;3.20;1.80;;;1.80;98.00;;;;;;5060139;28;21017;-62
2023/01/27 10:14:18;;;;;;;3.10;2.23;;;1.90;98.00;;;;;;5052175;28;20460;-62
2023/01/27 10:16:56;;;;;;;4.47;2.43;;;1.80;98.00;;;;;;5052193;28;20460;-62
2023/01/27 10:19:49;;;;;;;4.47;2.20;;;1.80;98.00;;;;;;5051740;28;20461;-62
2023/01/27 10:22:24;;;;;;;2.27;1.87;;;2.00;98.00;;;;;;5050644;28;20468;-62
2023/01/27 10:25:04;;;;;;;2.90;1.87;;;2.10;98.00;;;;;;5051960;28;20469;-62
2023/01/27 10:27:36;;;;;;;4.03;2.30;;;2.20;98.00;;;;;;5051767;28;20591;-62
2023/01/27 10:30:11;;;;;;;2.33;1.73;;;2.20;98.00;;;;;;5050799;28;20453;-62
2023/01/27 10:32:44;;;;;;;4.63;2.30;;;2.10;98.00;;;;;;5051252;28;20492;-62
2023/01/27 10:35:17;;;;;;;3.30;1.80;;;1.90;98.00;;;;;;5051181;28;20453;-62
2023/01/27 10:37:56;;;;;;;5.17;2.53;;;1.90;98.00;;;;;;5051143;28;20497;-62
2023/01/27 10:40:33;;;;;;;2.57;2.30;;;1.90;98.00;;;;;;5050718;28;20509;-62
2023/01/27 10:43:09;;;;;;;1.57;1.30;;;2.00;98.00;;;;;;5051016;28;20535;-62
2023/01/27 10:45:38;;;;;;;1.90;1.80;;;1.90;98.00;;;;;;5050877;28;20495;-63
2023/01/27 10:48:42;;;;;;;1.90;1.63;;;1.80;98.00;;;;;;5051917;28;20465;-62
2023/01/27 10:51:13;;;;;;;3.50;2.60;;;1.80;98.00;;;;;;5051465;28;20520;-62
2023/01/27 10:53:50;;;;;;;2.37;1.80;;;1.80;98.00;;;;;;5051851;28;20453;-62
2023/01/27 10:56:23;;;;;;;4.53;2.37;;;1.80;98.00;;;;;;5049945;28;20461;-62
2023/01/27 10:58:59;;;;;;;5.53;3.70;;;1.80;98.00;;;;;;5049542;28;20450;-63
2023/01/27 11:01:32;;;;;;;3.30;3.00;;;1.90;98.00;;;;;;5049715;28;20457;-62
2023/01/27 11:04:03;;;;;;;5.37;3.07;;;1.90;98.00;;;;;;5050827;28;20457;-62
2023/01/27 11:06:35;;;;;;;6.83;2.40;;;2.00;98.00;;;;;;5051080;28;20469;-62
2023/01/27 11:09:11;;;;;;;3.33;2.43;;;1.90;98.00;;;;;;5051027;28;20936;-62
2023/01/27 11:11:45;;;;;;;3.03;1.90;;;2.00;98.00;;;;;;5050917;28;20480;-62
2023/01/27 11:14:25;;;;;;;3.80;2.70;;;2.00;98.00;;;;;;5050837;28;20467;-62
2023/01/27 11:16:55;;;;;;;2.43;1.70;;;2.10;98.00;;;;;;5050869;28;20783;-62
2023/01/27 11:19:43;;;;;;;1.60;1.47;;;2.30;98.00;;;;;;5050799;28;20468;-62
2023/01/27 11:22:19;;;;;;;1.77;1.73;;;2.20;98.00;;;;;;5051367;28;20461;-63
2023/01/27 11:24:53;;;;;;;2.40;1.80;;;2.30;98.00;;;;;;5050651;28;20870;-63
2023/01/27 11:27:33;;;;;;;11.70;2.60;;;2.40;98.00;;;;;;5050711;28;20556;-62
2023/01/27 11:30:09;;;;;;;3.83;2.40;;;2.20;98.00;;;;;;5050542;28;20550;-63
2023/01/27 11:32:48;;;;;;;2.00;1.83;;;2.20;98.00;;;;;;5050580;28;20486;-63
2023/01/27 11:35:16;;;;;;;2.07;1.83;;;2.10;98.00;;;;;;5050679;28;20565;-62
2023/01/27 11:37:45;;;;;;;2.70;1.83;;;2.20;98.00;;;;;;5050487;28;20826;-63
2023/01/27 11:40:21;;;;;;;2.37;1.80;;;2.20;98.00;;;;;;5050641;28;20960;-63
2023/01/27 11:42:49;;;;;;;4.90;2.60;;;2.10;98.00;;;;;;5050372;28;20966;-63
2023/01/27 11:45:19;;;;;;;4.50;2.03;;;2.10;98.00;;;;;;5050371;28;20454;-63
2023/01/27 11:47:54;;;;;;;3.33;2.33;;;2.10;98.00;;;;;;5050459;28;20454;-62
2023/01/27 11:50:23;;;;;;;3.67;2.03;;;1.90;98.00;;;;;;5050359;28;20464;-62
2023/01/27 11:52:57;;;;;;;5.00;2.67;;;1.90;98.00;;;;;;5072916;28;20572;-62
2023/01/27 11:55:30;;;;;;;4.53;2.20;;;1.90;98.00;;;;;;5074913;28;20475;-63
2023/01/27 11:58:10;;;;;;;2.23;1.90;;;1.90;98.00;;;;;;5074719;28;20468;-62
2023/01/27 12:00:43;;;;;;;2.33;2.17;;;2.00;98.00;;;;;;5074914;28;20943;-62
2023/01/27 12:03:18;;;;;;;2.17;1.53;;;2.00;98.00;;;;;;5074915;28;20456;-62
2023/01/27 12:05:51;;;;;;;4.23;3.20;;;2.30;98.00;;;;;;5074831;28;20482;-62
2023/01/27 12:08:38;;;;;;;6.27;2.50;;;2.30;98.00;;;;;;5074692;28;20457;-62
2023/01/27 12:11:20;;;;;;;4.00;2.67;;;2.30;98.00;;;;;;5074784;28;20464;-62
2023/01/27 12:13:53;;;;;;;4.30;2.60;;;2.40;98.00;;;;;;5073502;28;20453;-64
2023/01/27 12:16:23;;;;;;;3.23;2.40;;;2.50;98.00;;;;;;5074659;28;20814;-63
2023/01/27 12:18:57;;;;;;;3.60;2.07;;;2.60;98.00;;;;;;5073604;28;21185;-64
2023/01/27 12:21:38;;;;;;;3.43;2.50;;;2.60;98.00;;;;;;5074763;28;20879;-65
2023/01/27 12:24:07;;;;;;;3.50;2.47;;;2.50;98.00;;;;;;5074186;28;20469;-64
2023/01/27 12:26:38;;;;;;;2.53;2.27;;;2.40;98.00;;;;;;5074583;28;20461;-62
2023/01/27 12:29:13;;;;;;;5.07;2.30;;;2.30;98.00;;;;;;5074235;28;20461;-64
2023/01/27 12:31:47;;;;;;;3.83;2.30;;;2.50;98.00;;;;;;5074146;28;20484;-62
2023/01/27 12:34:25;;;;;;;6.00;3.20;;;2.20;98.00;;;;;;5072946;28;20839;-64
2023/01/27 12:36:53;;;;;;;2.83;2.63;;;2.20;98.00;;;;;;5074047;28;20460;-63
2023/01/27 12:39:43;;;;;;;3.03;1.93;;;2.30;98.00;;;;;;5074156;28;20457;-63
2023/01/27 12:42:46;;;;;;;5.57;2.40;;;2.20;98.00;;;;;;5074009;28;20460;-64
2023/01/27 12:45:28;;;;;;;2.33;1.90;;;2.20;98.00;;;;;;5073630;28;20953;-65
2023/01/27 12:48:01;;;;;;;3.17;1.57;;;2.10;98.00;;;;;;5073967;28;20485;-62
2023/01/27 12:50:31;;;;;;;4.70;2.47;;;2.20;98.00;;;;;;5054023;28;20461;-64
2023/01/27 12:53:06;;;;;;;6.20;2.77;;;2.20;98.00;;;;;;5053714;28;20492;-64
2023/01/27 12:55:36;;;;;;;2.23;2.10;;;2.10;98.00;;;;;;5053852;28;20459;-64
2023/01/27 12:58:03;;;;;;;2.50;2.40;;;2.30;98.00;;;;;;5053623;28;20465;-64
2023/01/27 13:00:34;;;;;;;2.43;1.73;;;2.20;98.00;;;;;;5053623;28;20453;-64
2023/01/27 13:03:06;;;;;;;3.53;2.17;;;4.30;98.00;;;;;;5052640;28;20454;-60
2023/01/27 13:05:38;;;;;;;12.40;3.53;;;6.10;98.00;;;;;;5053781;28;20484;-62
2023/01/27 13:08:12;;;;;;;6.37;3.80;;;6.40;98.00;;;;;;5053567;28;20468;-62
2023/01/27 13:10:39;;;;;;;8.23;2.53;;;6.10;98.00;;;;;;5053845;28;20458;-62
2023/01/27 13:13:16;;;;;;;3.67;2.17;;;5.60;98.00;;;;;;5053819;28;20507;-62
2023/01/27 13:15:55;;;;;;;7.10;2.97;;;5.20;98.00;;;;;;5053781;28;20460;-62
2023/01/27 13:18:22;;;;;;;2.50;2.40;;;4.80;98.00;;;;;;5053771;28;20463;-62
2023/01/27 13:20:55;;;;;;;2.60;1.70;;;4.50;98.00;;;;;;5053546;28;20457;-62
2023/01/27 13:23:25;;;;;;;11.80;5.10;;;4.30;98.00;;;;;;5053516;28;20453;-62
2023/01/27 13:25:57;;;;;;;5.30;2.90;;;4.00;98.00;;;;;;5053469;28;20459;-62
2023/01/27 13:28:27;;;;;;;3.83;2.33;;;3.70;98.00;;;;;;5053292;28;20454;-60
2023/01/27 13:31:02;;;;;;;5.00;3.10;;;3.60;98.00;;;;;;5053121;28;20943;-61
2023/01/27 13:33:39;;;;;;;7.17;3.57;;;3.40;98.00;;;;;;5053192;28;20489;-61
2023/01/27 13:36:12;;;;;;;7.27;2.83;;;3.30;98.00;;;;;;5052981;28;20458;-61
2023/01/27 13:38:45;;;;;;;4.27;3.03;;;3.20;98.00;;;;;;5052803;28;20519;-63
2023/01/27 13:41:19;;;;;;;5.33;3.40;;;3.10;98.00;;;;;;5051845;28;20476;-62
2023/01/27 13:43:56;;;;;;;7.93;2.83;;;3.00;98.00;;;;;;5052870;28;20458;-62
2023/01/27 13:46:31;;;;;;;4.97;2.73;;;2.90;98.00;;;;;;5052922;28;21007;-61
2023/01/27 13:49:03;;;;;;;4.00;2.17;;;2.90;98.00;;;;;;5051635;28;20465;-62
2023/01/27 13:51:33;;;;;;;4.83;2.90;;;2.90;98.00;;;;;;5052840;28;20453;-62